Time;durP1;ratioP1;P1;durP2;ratioP2;P2;SDS_P1;SDS_P2;PMS_P1;PMS_P2;Temp;Humidity;BMP_temperature;BMP_pressure;BME280_temperature;BME280_humidity;BME280_pressure;Samples;Min_cycle;Max_cycle;Signal;HPM_P1;HPM_P2
2022/11/18 00:01:41;;;;;;;19.23;14.13;;;6.60;99.90;;;;;;5092998;28;20051;-63
2022/11/18 00:04:08;;;;;;;18.38;14.10;;;6.70;99.90;;;;;;5092994;28;20566;-63
2022/11/18 00:06:36;;;;;;;20.15;13.82;;;6.60;99.90;;;;;;5091431;28;20055;-62
2022/11/18 00:09:03;;;;;;;20.42;13.93;;;6.60;99.90;;;;;;5092804;28;20047;-63
2022/11/18 00:14:21;;;;;;;19.02;13.70;;;6.70;99.90;;;;;;5091359;28;20044;-63
2022/11/18 00:16:50;;;;;;;19.75;13.20;;;6.70;99.90;;;;;;5091481;28;20105;-63
2022/11/18 00:19:18;;;;;;;18.55;13.32;;;6.70;99.90;;;;;;5090839;28;20048;-63
2022/11/18 00:21:46;;;;;;;18.13;13.73;;;6.70;99.90;;;;;;5092850;28;20101;-63
2022/11/18 00:24:13;;;;;;;18.98;13.82;;;6.70;99.90;;;;;;5092974;28;20043;-64
2022/11/18 00:26:40;;;;;;;21.40;14.77;;;6.70;99.90;;;;;;5092003;28;20048;-62
2022/11/18 00:29:08;;;;;;;19.83;14.15;;;6.70;99.90;;;;;;5090339;28;20043;-64
2022/11/18 00:31:35;;;;;;;19.20;13.43;;;6.70;99.90;;;;;;5090198;28;20066;-62
2022/11/18 00:34:02;;;;;;;18.77;13.10;;;6.70;99.90;;;;;;5092330;28;20040;-63
2022/11/18 00:36:29;;;;;;;16.92;12.50;;;6.70;99.90;;;;;;5091163;28;20056;-63
2022/11/18 00:38:57;;;;;;;20.05;14.50;;;6.70;99.90;;;;;;5092207;28;20056;-63
2022/11/18 00:42:49;;;;;;;16.45;12.02;;;6.70;99.90;;;;;;5089228;28;20055;-63
2022/11/18 00:44:11;;;;;;;20.17;13.05;;;6.70;99.90;;;;;;5092443;28;20085;-64
2022/11/18 00:46:37;;;;;;;20.33;13.35;;;6.70;99.90;;;;;;5090730;28;20040;-64
2022/11/18 00:49:04;;;;;;;20.00;12.70;;;6.60;99.90;;;;;;5091877;28;20503;-63
2022/11/18 00:51:31;;;;;;;18.27;12.73;;;6.70;99.90;;;;;;5091151;28;20113;-62
2022/11/18 00:54:00;;;;;;;18.55;12.95;;;6.70;99.90;;;;;;5091699;28;20054;-63
2022/11/18 00:56:26;;;;;;;18.20;12.73;;;6.70;99.90;;;;;;5090386;28;20055;-62
2022/11/18 00:58:53;;;;;;;16.35;11.93;;;6.70;99.90;;;;;;5090149;28;20044;-63
2022/11/18 01:01:20;;;;;;;18.83;13.48;;;6.70;99.90;;;;;;5090403;28;20506;-63
2022/11/18 01:03:47;;;;;;;18.10;13.00;;;6.70;99.90;;;;;;5090887;28;20052;-63
2022/11/18 01:06:14;;;;;;;18.48;13.75;;;6.70;99.90;;;;;;5089080;28;20097;-62
2022/11/18 01:08:41;;;;;;;20.25;12.65;;;6.60;99.90;;;;;;5088362;28;20044;-62
2022/11/18 01:13:54;;;;;;;21.88;14.50;;;6.70;99.90;;;;;;5089115;28;20058;-63
2022/11/18 01:16:24;;;;;;;22.13;13.93;;;6.70;99.90;;;;;;5090172;28;20048;-64
2022/11/18 01:18:51;;;;;;;23.67;14.25;;;6.70;99.90;;;;;;5094701;28;20075;-63
2022/11/18 01:21:18;;;;;;;19.42;13.30;;;6.60;99.90;;;;;;5094231;28;20054;-63
2022/11/18 01:23:45;;;;;;;18.98;14.13;;;6.70;99.90;;;;;;5095495;28;20397;-63
2022/11/18 01:26:15;;;;;;;19.75;13.98;;;6.60;99.90;;;;;;5095790;28;20396;-63
2022/11/18 01:28:43;;;;;;;22.23;13.30;;;6.60;99.90;;;;;;5095833;28;20484;-63
2022/11/18 01:31:11;;;;;;;20.80;13.90;;;6.70;99.90;;;;;;5093675;28;20399;-63
2022/11/18 01:33:39;;;;;;;21.00;14.57;;;6.60;99.90;;;;;;5094824;28;20081;-63
2022/11/18 01:36:15;;;;;;;23.23;14.60;;;6.60;99.90;;;;;;5094876;28;20075;-63
2022/11/18 01:38:42;;;;;;;21.42;14.75;;;6.60;99.90;;;;;;5094860;28;20488;-62
2022/11/18 01:41:09;;;;;;;28.20;15.57;;;6.60;99.90;;;;;;5095692;28;20052;-64
2022/11/18 01:43:52;;;;;;;27.98;17.95;;;6.60;99.90;;;;;;5094333;28;20121;-63
2022/11/18 01:46:19;;;;;;;43.13;22.80;;;6.60;99.90;;;;;;5095687;28;20047;-63
2022/11/18 01:48:49;;;;;;;43.70;25.10;;;6.60;99.90;;;;;;5095192;28;20055;-63
2022/11/18 01:51:18;;;;;;;46.17;26.17;;;6.60;99.90;;;;;;5095099;28;20044;-63
2022/11/18 01:53:48;;;;;;;45.60;26.60;;;6.50;99.90;;;;;;5095776;28;20089;-62
2022/11/18 01:56:18;;;;;;;43.85;26.65;;;6.50;99.90;;;;;;5094374;28;20487;-62
2022/11/18 01:58:51;;;;;;;48.22;27.30;;;6.50;99.90;;;;;;5094801;28;20044;-63
2022/11/18 02:01:18;;;;;;;48.03;27.23;;;6.60;99.90;;;;;;5095195;28;20548;-62
2022/11/18 02:03:48;;;;;;;47.05;26.75;;;6.50;99.90;;;;;;5092778;28;20105;-63
2022/11/18 02:06:16;;;;;;;41.88;24.75;;;6.60;99.90;;;;;;5093683;28;20089;-63
2022/11/18 02:08:43;;;;;;;44.70;24.75;;;6.50;99.90;;;;;;5095395;28;20048;-63
2022/11/18 02:11:49;;;;;;;41.40;24.25;;;6.50;99.90;;;;;;5094324;28;20051;-62
2022/11/18 02:14:05;;;;;;;38.88;24.38;;;6.60;99.90;;;;;;5092759;28;20066;-63
2022/11/18 02:16:42;;;;;;;39.97;23.77;;;6.50;99.90;;;;;;5095138;28;20051;-62
2022/11/18 02:19:23;;;;;;;38.22;22.10;;;6.50;99.90;;;;;;5092882;28;20056;-63
2022/11/18 02:22:01;;;;;;;38.78;20.90;;;6.50;99.90;;;;;;5095023;28;20048;-63
2022/11/18 02:24:40;;;;;;;33.67;21.90;;;6.50;99.90;;;;;;5094036;28;20099;-63
2022/11/18 02:27:54;;;;;;;36.00;20.63;;;6.60;99.90;;;;;;5093163;28;20506;-63
2022/11/18 02:30:23;;;;;;;33.25;20.27;;;6.60;99.90;;;;;;5093999;28;20110;-63
2022/11/18 02:32:56;;;;;;;36.15;21.77;;;6.60;99.90;;;;;;5093139;28;20168;-63
2022/11/18 02:35:29;;;;;;;32.60;20.80;;;6.50;99.90;;;;;;5095032;28;20040;-64
2022/11/18 02:38:00;;;;;;;31.25;20.00;;;6.50;99.90;;;;;;5094751;28;20447;-62
2022/11/18 02:40:31;;;;;;;35.35;20.13;;;6.50;99.90;;;;;;5093290;28;20048;-63
2022/11/18 02:43:04;;;;;;;31.73;19.35;;;6.50;99.90;;;;;;5094260;28;20480;-62
2022/11/18 02:45:34;;;;;;;33.42;17.67;;;6.50;99.90;;;;;;5091975;28;20051;-63
2022/11/18 02:48:05;;;;;;;36.70;20.27;;;6.50;99.90;;;;;;5089972;28;20541;-63
2022/11/18 02:50:35;;;;;;;31.35;18.65;;;6.50;99.90;;;;;;5093348;28;20048;-63
2022/11/18 02:53:06;;;;;;;29.88;17.35;;;6.50;99.90;;;;;;5093333;28;20487;-63
2022/11/18 02:55:34;;;;;;;;;;;6.40;99.90;;;;;;5093894;28;20101;-64
2022/11/18 02:58:05;;;;;;;29.75;17.95;;;6.50;99.90;;;;;;5092904;28;20394;-64
2022/11/18 03:00:33;;;;;;;32.55;18.38;;;6.50;99.90;;;;;;5092486;28;20487;-62
2022/11/18 03:03:00;;;;;;;30.48;18.38;;;6.50;99.90;;;;;;5090029;28;20185;-63
2022/11/18 03:05:35;;;;;;;31.17;18.33;;;6.40;99.90;;;;;;5094234;28;20043;-64
2022/11/18 03:08:08;;;;;;;32.35;18.75;;;6.40;99.90;;;;;;5091886;28;20113;-63
2022/11/18 03:10:40;;;;;;;31.23;18.20;;;6.60;99.90;;;;;;5094249;28;20050;-63
2022/11/18 03:13:15;;;;;;;37.95;19.10;;;6.40;99.90;;;;;;5091912;28;20403;-64
2022/11/18 03:15:51;;;;;;;36.17;19.35;;;6.40;99.90;;;;;;5092586;28;20059;-63
2022/11/18 03:18:27;;;;;;;30.35;16.70;;;6.40;99.90;;;;;;5090680;28;20040;-63
2022/11/18 03:20:58;;;;;;;22.45;14.05;;;6.30;99.90;;;;;;5092614;28;20043;-63
2022/11/18 03:23:32;;;;;;;27.00;14.65;;;6.30;99.90;;;;;;5092230;28;20055;-62
2022/11/18 03:26:05;;;;;;;20.48;13.93;;;6.30;99.90;;;;;;5093956;28;20056;-62
2022/11/18 03:28:36;;;;;;;26.00;14.77;;;6.30;99.90;;;;;;5092132;28;20097;-63
2022/11/18 03:31:12;;;;;;;27.15;14.07;;;6.00;99.90;;;;;;5092071;28;20134;-62
2022/11/18 03:33:45;;;;;;;22.35;13.38;;;6.30;99.90;;;;;;5091894;28;20126;-62
2022/11/18 03:36:14;;;;;;;21.55;13.25;;;6.30;99.90;;;;;;5091345;28;20044;-63
2022/11/18 03:38:45;;;;;;;19.52;11.50;;;6.20;99.90;;;;;;5092552;28;20451;-63
2022/11/18 03:41:15;;;;;;;20.85;12.13;;;6.30;99.90;;;;;;5091772;28;20044;-63
2022/11/18 03:43:48;;;;;;;20.10;12.55;;;6.20;99.90;;;;;;5091831;28;20056;-63
2022/11/18 03:46:20;;;;;;;20.60;12.35;;;6.20;99.90;;;;;;5092583;28;20105;-63
2022/11/18 03:48:51;;;;;;;17.08;11.35;;;6.20;99.90;;;;;;5093327;28;20051;-64
2022/11/18 03:51:22;;;;;;;18.90;11.65;;;6.20;99.90;;;;;;5092489;28;20052;-63
2022/11/18 03:53:55;;;;;;;19.23;11.45;;;6.30;99.90;;;;;;5092239;28;20052;-63
2022/11/18 03:56:26;;;;;;;17.80;11.85;;;6.20;99.90;;;;;;5093198;28;20044;-62
2022/11/18 03:58:57;;;;;;;17.55;11.82;;;6.10;99.90;;;;;;5093235;28;20044;-63
2022/11/18 04:01:33;;;;;;;16.10;11.48;;;6.10;99.90;;;;;;5092909;28;20522;-62
2022/11/18 04:04:00;;;;;;;17.77;11.70;;;6.10;99.90;;;;;;5091287;28;20406;-62
2022/11/18 04:06:35;;;;;;;18.38;10.95;;;6.10;99.90;;;;;;5092073;28;20044;-62
2022/11/18 04:09:10;;;;;;;22.42;10.10;;;6.10;99.90;;;;;;5092672;28;20055;-62
2022/11/18 04:12:02;;;;;;;13.43;10.00;;;6.10;99.90;;;;;;5090366;28;20059;-61
2022/11/18 04:14:30;;;;;;;21.45;11.10;;;6.10;99.90;;;;;;5091701;28;20048;-62
2022/11/18 04:16:58;;;;;;;19.60;10.95;;;6.10;99.90;;;;;;5092877;28;20118;-62
2022/11/18 04:19:25;;;;;;;17.13;11.00;;;6.10;99.90;;;;;;5092035;28;20048;-63
2022/11/18 04:21:52;;;;;;;19.52;11.88;;;6.10;99.90;;;;;;5092735;28;20062;-62
2022/11/18 04:24:18;;;;;;;18.80;11.20;;;6.10;99.90;;;;;;5090990;28;20048;-63
2022/11/18 04:26:45;;;;;;;18.38;10.65;;;6.10;99.90;;;;;;5091896;28;20044;-63
2022/11/18 04:29:12;;;;;;;16.92;10.82;;;6.10;99.90;;;;;;5091143;28;20059;-65
2022/11/18 04:31:39;;;;;;;18.75;11.63;;;6.10;99.90;;;;;;5089952;28;20454;-63
2022/11/18 04:34:07;;;;;;;21.70;11.60;;;6.30;99.90;;;;;;5091578;28;20052;-63
2022/11/18 04:36:34;;;;;;;21.00;10.70;;;6.10;99.90;;;;;;5091170;28;20064;-63
2022/11/18 04:39:01;;;;;;;14.82;10.30;;;6.10;99.90;;;;;;5090313;28;20051;-63
2022/11/18 04:44:11;;;;;;;;;;;6.10;99.90;;;;;;5090585;28;20046;-63
2022/11/18 04:46:40;;;;;;;19.55;10.32;;;6.10;99.90;;;;;;5089696;28;19928;-63
2022/11/18 04:49:09;;;;;;;18.00;10.32;;;6.10;99.90;;;;;;5090884;28;20535;-63
2022/11/18 04:51:37;;;;;;;20.42;10.75;;;6.10;99.90;;;;;;5091575;28;20040;-63
2022/11/18 04:54:04;;;;;;;17.67;10.45;;;6.10;99.90;;;;;;5089680;28;20044;-63
2022/11/18 04:56:31;;;;;;;22.65;12.15;;;6.10;99.90;;;;;;5092400;28;20059;-63
2022/11/18 04:58:59;;;;;;;16.92;10.98;;;6.10;99.90;;;;;;5091048;28;20101;-63
2022/11/18 05:01:26;;;;;;;16.08;10.80;;;6.10;99.90;;;;;;5091622;28;20048;-63
2022/11/18 05:03:53;;;;;;;16.73;10.85;;;6.10;99.90;;;;;;5092021;28;20074;-63
2022/11/18 05:06:22;;;;;;;16.42;10.85;;;6.10;99.90;;;;;;5090899;28;20059;-63
2022/11/18 05:08:49;;;;;;;17.40;10.75;;;6.10;99.90;;;;;;5089352;28;20036;-63
2022/11/18 05:14:00;;;;;;;16.85;10.70;;;6.00;99.90;;;;;;5091285;28;20054;-63
2022/11/18 05:16:27;;;;;;;16.13;11.43;;;6.10;99.90;;;;;;5092063;28;20044;-63
2022/11/18 05:18:54;;;;;;;19.35;11.30;;;6.00;99.90;;;;;;5084608;28;20051;-62
2022/11/18 05:21:22;;;;;;;15.52;11.02;;;6.00;99.90;;;;;;5077406;28;20044;-63
2022/11/18 05:23:49;;;;;;;20.90;11.63;;;6.00;99.90;;;;;;5082968;28;20056;-63
2022/11/18 05:26:16;;;;;;;20.05;10.93;;;6.00;99.90;;;;;;5078922;28;20062;-63
2022/11/18 05:28:43;;;;;;;17.00;11.30;;;6.00;99.90;;;;;;5084022;28;20059;-63
2022/11/18 05:31:11;;;;;;;18.05;11.73;;;6.00;99.90;;;;;;5077936;28;20052;-63
2022/11/18 05:33:39;;;;;;;17.98;11.30;;;6.00;99.90;;;;;;5080954;28;20063;-63
2022/11/18 05:36:07;;;;;;;17.60;11.23;;;6.00;99.90;;;;;;5079708;28;20059;-62
2022/11/18 05:38:36;;;;;;;19.50;11.88;;;6.00;99.90;;;;;;5089778;28;20438;-61
2022/11/18 05:41:04;;;;;;;19.83;11.68;;;6.00;99.90;;;;;;5077245;28;20040;-63
2022/11/18 05:43:30;;;;;;;17.77;11.50;;;6.00;99.90;;;;;;5078624;28;20060;-62
2022/11/18 05:45:58;;;;;;;22.13;11.65;;;6.00;99.90;;;;;;5079116;28;20483;-62
2022/11/18 05:48:25;;;;;;;19.52;12.05;;;6.00;99.90;;;;;;5088230;28;20051;-63
2022/11/18 05:50:53;;;;;;;22.50;12.27;;;6.00;99.90;;;;;;5080509;28;20048;-62
2022/11/18 05:53:22;;;;;;;21.58;11.55;;;6.00;99.90;;;;;;5084039;28;20052;-63
2022/11/18 05:55:56;;;;;;;23.70;12.90;;;6.00;99.90;;;;;;5086051;28;20082;-64
2022/11/18 05:58:23;;;;;;;18.83;11.93;;;6.00;99.90;;;;;;5083572;28;20055;-63
2022/11/18 06:00:54;;;;;;;21.08;12.02;;;6.00;99.90;;;;;;5076782;28;20522;-63
2022/11/18 06:03:22;;;;;;;;;;;6.00;99.90;;;;;;5078799;28;20052;-63
2022/11/18 06:05:49;;;;;;;20.25;11.10;;;6.00;99.90;;;;;;5084912;28;19978;-63
2022/11/18 06:08:18;;;;;;;21.50;12.02;;;5.90;99.90;;;;;;5087698;28;20051;-64
2022/11/18 06:10:47;;;;;;;20.08;12.73;;;5.90;99.90;;;;;;5087428;28;20059;-63
2022/11/18 06:13:20;;;;;;;23.73;12.27;;;5.90;99.90;;;;;;5085240;28;20077;-62
2022/11/18 06:15:47;;;;;;;21.25;10.75;;;5.90;99.90;;;;;;5082284;28;20048;-63
2022/11/18 06:18:22;;;;;;;19.73;11.40;;;5.90;99.90;;;;;;5092239;28;20051;-64
2022/11/18 06:20:51;;;;;;;20.38;13.25;;;6.00;99.90;;;;;;5080780;28;20063;-63
2022/11/18 06:23:18;;;;;;;17.10;11.02;;;5.90;99.90;;;;;;5085351;28;20067;-63
2022/11/18 06:25:45;;;;;;;21.40;11.27;;;5.90;99.90;;;;;;5085458;28;20164;-63
2022/11/18 06:28:16;;;;;;;23.05;11.65;;;5.90;99.90;;;;;;5081174;28;20044;-63
2022/11/18 06:30:43;;;;;;;23.98;13.07;;;5.90;99.90;;;;;;5084107;28;20055;-64
2022/11/18 06:33:10;;;;;;;20.58;12.48;;;5.90;99.90;;;;;;5086418;28;20566;-63
2022/11/18 06:35:37;;;;;;;23.13;13.85;;;5.80;99.90;;;;;;5081587;28;20087;-63
2022/11/18 06:38:04;;;;;;;20.55;12.63;;;5.90;99.90;;;;;;5081720;28;20484;-63
2022/11/18 06:40:31;;;;;;;21.67;13.02;;;5.90;99.90;;;;;;5078986;28;20064;-62
2022/11/18 06:46:54;;;;;;;19.63;12.10;;;5.80;99.90;;;;;;5078058;28;20528;-63
2022/11/18 06:48:31;;;;;;;25.40;12.40;;;5.90;99.90;;;;;;5090786;28;20124;-63
2022/11/18 06:50:58;;;;;;;24.40;13.68;;;5.90;99.90;;;;;;5083958;28;20056;-63
2022/11/18 06:53:25;;;;;;;22.83;12.23;;;6.00;99.90;;;;;;5085144;28;20496;-63
2022/11/18 06:55:52;;;;;;;19.80;12.38;;;5.90;99.90;;;;;;5079383;28;20688;-64
2022/11/18 06:58:19;;;;;;;23.10;13.63;;;5.90;99.90;;;;;;5087788;28;20044;-62
2022/11/18 07:00:47;;;;;;;24.95;13.68;;;5.90;99.90;;;;;;5092048;28;20052;-64
2022/11/18 07:03:14;;;;;;;24.60;14.05;;;5.90;99.90;;;;;;5088409;28;20067;-64
2022/11/18 07:05:41;;;;;;;23.17;14.25;;;5.80;99.90;;;;;;5090071;28;20055;-62
2022/11/18 07:08:07;;;;;;;24.13;12.50;;;5.80;99.90;;;;;;5090532;28;20056;-62
2022/11/18 07:10:34;;;;;;;19.63;12.00;;;5.90;99.90;;;;;;5091767;28;20484;-62
2022/11/18 07:13:01;;;;;;;26.08;13.55;;;5.80;99.90;;;;;;5092905;28;20415;-62
2022/11/18 07:15:28;;;;;;;21.52;12.10;;;5.80;99.90;;;;;;5090833;28;20074;-62
2022/11/18 07:17:56;;;;;;;20.67;12.18;;;5.90;99.90;;;;;;5084232;28;20480;-63
2022/11/18 07:20:23;;;;;;;20.42;12.20;;;5.80;99.90;;;;;;5088679;28;20048;-62
2022/11/18 07:22:52;;;;;;;23.63;12.68;;;5.80;99.90;;;;;;5084247;28;20059;-63
2022/11/18 07:25:19;;;;;;;23.70;12.60;;;5.80;99.90;;;;;;5091720;28;20377;-63
2022/11/18 07:27:47;;;;;;;19.08;11.65;;;5.80;99.90;;;;;;5091794;28;20079;-63
2022/11/18 07:30:14;;;;;;;18.52;12.57;;;5.80;99.90;;;;;;5091399;28;20639;-63
2022/11/18 07:32:41;;;;;;;20.75;11.00;;;5.80;99.90;;;;;;5093579;28;20048;-63
2022/11/18 07:35:10;;;;;;;27.27;13.77;;;5.80;99.90;;;;;;5093276;28;20055;-64
2022/11/18 07:37:36;;;;;;;20.00;11.73;;;5.80;99.90;;;;;;5092798;28;20577;-64
2022/11/18 07:40:04;;;;;;;22.17;12.90;;;5.80;99.90;;;;;;5093253;28;20059;-64
2022/11/18 07:42:41;;;;;;;24.05;13.63;;;5.80;99.90;;;;;;5090738;28;20044;-63
2022/11/18 07:45:10;;;;;;;22.80;13.70;;;5.90;99.90;;;;;;5092150;28;20051;-63
2022/11/18 07:47:37;;;;;;;21.27;13.35;;;5.80;99.90;;;;;;5090660;28;20040;-62
2022/11/18 07:50:05;;;;;;;22.80;12.38;;;5.80;99.90;;;;;;5092691;28;20437;-63
2022/11/18 07:52:34;;;;;;;26.95;14.25;;;5.80;99.90;;;;;;5093061;28;20454;-63
2022/11/18 07:55:00;;;;;;;19.88;12.98;;;5.80;99.90;;;;;;5092995;28;20048;-63
2022/11/18 07:57:27;;;;;;;27.27;13.07;;;5.80;99.90;;;;;;5089659;28;20361;-63
2022/11/18 07:59:54;;;;;;;24.88;13.48;;;5.80;99.90;;;;;;5091912;28;20105;-63
2022/11/18 08:02:21;;;;;;;22.10;13.20;;;5.80;99.90;;;;;;5091209;28;20059;-63
2022/11/18 08:04:48;;;;;;;27.02;13.55;;;5.80;99.90;;;;;;5092542;28;20044;-63
2022/11/18 08:07:15;;;;;;;20.25;12.30;;;5.80;99.90;;;;;;5088174;28;20093;-63
2022/11/18 08:09:46;;;;;;;19.67;11.55;;;5.80;99.90;;;;;;5090751;28;20055;-63
2022/11/18 08:12:13;;;;;;;21.33;12.60;;;5.80;99.90;;;;;;5090886;28;20097;-63
2022/11/18 08:14:40;;;;;;;18.17;10.90;;;5.80;99.90;;;;;;5091556;28;20109;-62
2022/11/18 08:17:07;;;;;;;23.08;12.82;;;5.80;99.90;;;;;;5091015;28;20059;-63
2022/11/18 08:19:34;;;;;;;19.75;12.02;;;5.80;99.90;;;;;;5092374;28;20048;-64
2022/11/18 08:22:01;;;;;;;21.88;11.45;;;5.80;99.90;;;;;;5092542;28;20047;-63
2022/11/18 08:24:28;;;;;;;19.77;11.43;;;5.80;99.90;;;;;;5091982;28;20044;-63
2022/11/18 08:26:56;;;;;;;20.13;12.70;;;5.80;99.90;;;;;;5091073;28;20048;-63
2022/11/18 08:29:23;;;;;;;18.98;10.43;;;5.70;99.90;;;;;;5091681;28;20036;-63
2022/11/18 08:31:50;;;;;;;18.63;11.35;;;5.70;99.90;;;;;;5091947;28;20241;-64
2022/11/18 08:34:17;;;;;;;19.15;10.90;;;5.80;99.90;;;;;;5091471;28;20537;-63
2022/11/18 08:36:44;;;;;;;14.27;9.93;;;5.70;99.90;;;;;;5089408;28;20384;-64
2022/11/18 08:39:12;;;;;;;19.42;10.60;;;5.70;99.90;;;;;;5091462;28;20062;-62
2022/11/18 08:41:41;;;;;;;20.30;11.35;;;5.80;99.90;;;;;;5090793;28;20055;-62
2022/11/18 08:44:13;;;;;;;19.92;11.32;;;5.80;99.90;;;;;;5091394;28;20048;-63
2022/11/18 08:46:40;;;;;;;21.33;12.90;;;5.80;99.90;;;;;;5088923;28;20086;-63
2022/11/18 08:49:07;;;;;;;21.38;12.38;;;5.70;99.90;;;;;;5092120;28;20046;-63
2022/11/18 08:51:34;;;;;;;25.75;13.32;;;5.70;99.90;;;;;;5088687;28;20047;-63
2022/11/18 08:54:01;;;;;;;21.65;13.55;;;5.70;99.90;;;;;;5090500;28;20442;-63
2022/11/18 08:56:28;;;;;;;22.50;13.77;;;5.70;99.90;;;;;;5090677;28;20052;-63
2022/11/18 08:58:56;;;;;;;22.48;13.80;;;5.70;99.90;;;;;;5089224;28;20040;-64
2022/11/18 09:01:24;;;;;;;19.95;13.18;;;5.70;99.90;;;;;;5090916;28;20605;-63
2022/11/18 09:03:51;;;;;;;19.40;11.25;;;5.60;99.90;;;;;;5090673;28;20055;-63
2022/11/18 09:06:20;;;;;;;16.45;11.20;;;5.60;99.90;;;;;;5091445;28;20044;-63
2022/11/18 09:08:47;;;;;;;17.40;10.82;;;5.70;99.90;;;;;;5089712;28;20044;-63
2022/11/18 09:11:17;;;;;;;22.25;11.20;;;5.70;99.90;;;;;;5087078;28;20044;-63
2022/11/18 09:13:44;;;;;;;18.70;11.73;;;5.80;99.90;;;;;;5091650;28;20043;-63
2022/11/18 09:16:13;;;;;;;19.02;11.55;;;5.80;99.90;;;;;;5090472;28;20515;-63
2022/11/18 09:18:41;;;;;;;20.17;11.98;;;5.90;99.90;;;;;;5090734;28;20044;-62
2022/11/18 09:21:09;;;;;;;16.98;10.55;;;5.70;99.90;;;;;;5091053;28;20114;-63
2022/11/18 09:23:37;;;;;;;19.67;11.32;;;5.70;99.90;;;;;;5091918;28;20047;-64
2022/11/18 09:26:06;;;;;;;18.05;10.68;;;5.70;99.90;;;;;;5090128;28;20078;-63
2022/11/18 09:28:34;;;;;;;22.25;12.73;;;5.70;99.90;;;;;;5089910;28;20097;-62
2022/11/18 09:31:04;;;;;;;19.48;11.55;;;5.80;99.90;;;;;;5089301;28;20405;-63
2022/11/18 09:33:31;;;;;;;18.02;11.85;;;5.70;99.90;;;;;;5092033;28;20094;-63
2022/11/18 09:35:59;;;;;;;17.75;10.90;;;5.70;99.90;;;;;;5088798;28;20048;-63
2022/11/18 09:38:28;;;;;;;19.13;11.60;;;5.80;99.90;;;;;;5091723;28;20384;-63
2022/11/18 09:41:05;;;;;;;16.23;10.00;;;5.90;99.90;;;;;;5093348;28;20044;-62
2022/11/18 09:43:45;;;;;;;16.55;9.52;;;5.90;99.90;;;;;;5095519;28;20388;-64
2022/11/18 09:46:26;;;;;;;17.13;10.48;;;5.90;99.90;;;;;;5093643;28;20089;-64
2022/11/18 09:49:14;;;;;;;17.10;10.15;;;5.90;99.90;;;;;;5093869;28;20377;-63
2022/11/18 09:51:45;;;;;;;15.18;9.93;;;5.90;99.90;;;;;;5095301;28;20051;-64
2022/11/18 09:54:18;;;;;;;15.00;9.20;;;5.80;99.90;;;;;;5094503;28;20483;-63
2022/11/18 09:56:47;;;;;;;17.58;11.40;;;5.80;99.90;;;;;;5094203;28;20049;-64
2022/11/18 09:59:15;;;;;;;16.15;9.88;;;5.90;99.90;;;;;;5093839;28;20491;-64
2022/11/18 10:01:43;;;;;;;16.70;9.50;;;5.80;99.90;;;;;;5092599;28;20057;-63
2022/11/18 10:04:15;;;;;;;16.63;9.75;;;5.90;99.90;;;;;;5090356;28;20048;-63
2022/11/18 10:06:44;;;;;;;17.35;10.10;;;5.80;99.90;;;;;;5094629;28;20118;-64
2022/11/18 10:09:33;;;;;;;18.98;10.05;;;5.80;99.90;;;;;;5095181;28;20044;-64
2022/11/18 10:12:14;;;;;;;14.45;9.20;;;5.80;99.90;;;;;;5093981;28;20047;-64
2022/11/18 10:14:54;;;;;;;15.40;10.02;;;5.80;99.90;;;;;;5094998;28;20615;-63
2022/11/18 10:17:33;;;;;;;16.98;10.10;;;5.80;99.90;;;;;;5092634;28;20051;-63
2022/11/18 10:20:15;;;;;;;20.27;9.40;;;5.80;99.90;;;;;;5093466;28;20407;-64
2022/11/18 10:22:49;;;;;;;16.67;9.70;;;5.80;99.90;;;;;;5092764;28;20074;-64
2022/11/18 10:25:18;;;;;;;15.48;9.98;;;5.80;99.90;;;;;;5094508;28;20044;-64
2022/11/18 10:27:47;;;;;;;17.08;10.88;;;6.40;99.90;;;;;;5093539;28;20075;-64
2022/11/18 10:30:17;;;;;;;17.60;10.65;;;5.70;99.90;;;;;;5091468;28;20044;-64
2022/11/18 10:32:54;;;;;;;21.95;11.48;;;5.80;99.90;;;;;;5092950;28;20355;-64
2022/11/18 10:35:28;;;;;;;19.25;11.60;;;5.70;99.90;;;;;;5093315;28;20052;-64
2022/11/18 10:38:15;;;;;;;16.98;11.30;;;5.70;99.90;;;;;;5092551;28;20059;-63
2022/11/18 10:40:46;;;;;;;18.58;10.25;;;5.70;99.90;;;;;;5091807;28;20048;-63
2022/11/18 10:43:33;;;;;;;16.88;10.80;;;5.60;99.90;;;;;;5091817;28;20051;-64
2022/11/18 10:46:16;;;;;;;16.80;11.15;;;5.50;99.90;;;;;;5093701;28;20511;-64
2022/11/18 10:48:43;;;;;;;16.77;11.30;;;5.50;99.90;;;;;;5093986;28;20052;-63
2022/11/18 10:51:22;;;;;;;17.63;11.55;;;5.50;99.90;;;;;;5089203;28;20142;-63
2022/11/18 10:53:51;;;;;;;18.40;11.30;;;5.50;99.90;;;;;;5093783;28;20055;-63
2022/11/18 10:56:17;;;;;;;17.45;11.32;;;5.50;99.90;;;;;;5093369;28;20051;-63
2022/11/18 10:58:48;;;;;;;17.42;11.95;;;5.50;99.90;;;;;;5089371;28;20070;-63
2022/11/18 11:01:19;;;;;;;;;;;5.50;99.90;;;;;;5094159;28;20739;-64
2022/11/18 11:03:56;;;;;;;19.98;11.80;;;5.50;99.90;;;;;;5092018;28;20372;-63
2022/11/18 11:06:36;;;;;;;17.33;11.25;;;5.40;99.90;;;;;;5091915;28;20483;-64
2022/11/18 11:09:10;;;;;;;26.15;13.70;;;5.30;99.90;;;;;;5092068;28;20052;-64
2022/11/18 11:11:42;;;;;;;17.40;11.18;;;5.20;99.90;;;;;;5093991;28;20048;-64
2022/11/18 11:14:22;;;;;;;22.52;12.85;;;5.20;99.90;;;;;;5093434;28;20113;-63
2022/11/18 11:16:56;;;;;;;20.58;12.45;;;5.20;99.90;;;;;;5092926;28;20044;-63
2022/11/18 11:19:28;;;;;;;17.67;10.90;;;5.20;99.90;;;;;;5092390;28;20044;-63
2022/11/18 11:21:57;;;;;;;23.50;13.10;;;5.20;99.90;;;;;;5090649;28;20047;-64
2022/11/18 11:24:27;;;;;;;20.67;12.07;;;5.10;99.90;;;;;;5092762;28;20048;-63
2022/11/18 11:27:05;;;;;;;20.30;12.03;;;5.10;99.90;;;;;;5093110;28;20082;-64
2022/11/18 11:29:47;;;;;;;24.10;13.95;;;5.10;99.90;;;;;;5092750;28;20514;-63
2022/11/18 11:32:19;;;;;;;22.45;12.73;;;5.10;99.90;;;;;;5092770;28;20074;-62
2022/11/18 11:34:56;;;;;;;24.17;13.98;;;5.10;99.90;;;;;;5091688;28;20048;-63
2022/11/18 11:37:37;;;;;;;23.92;14.40;;;5.10;99.90;;;;;;5090129;28;20126;-64
2022/11/18 11:40:16;;;;;;;;;;;5.10;99.90;;;;;;5092245;28;20052;-63
2022/11/18 11:42:50;;;;;;;23.38;14.68;;;5.10;99.90;;;;;;5093208;28;19920;-64
2022/11/18 11:45:24;;;;;;;28.92;14.20;;;5.10;99.90;;;;;;5091936;28;20044;-63
2022/11/18 11:48:23;;;;;;;23.98;14.35;;;5.00;99.90;;;;;;5090809;28;20048;-63
2022/11/18 11:50:54;;;;;;;28.92;14.73;;;5.00;99.90;;;;;;5091230;28;20048;-63
2022/11/18 11:53:29;;;;;;;;;;;4.90;99.90;;;;;;5090989;28;20399;-64
2022/11/18 11:56:10;;;;;;;27.27;14.88;;;4.80;99.90;;;;;;5090058;28;19924;-63
2022/11/18 11:58:46;;;;;;;;;;;4.80;99.90;;;;;;5092096;28;20051;-62
2022/11/18 12:01:19;;;;;;;26.35;14.85;;;4.80;99.90;;;;;;5091402;28;19920;-64
2022/11/18 12:03:48;;;;;;;25.50;14.32;;;4.70;99.90;;;;;;5092532;28;20135;-63
2022/11/18 12:06:15;;;;;;;26.98;14.73;;;4.70;99.90;;;;;;5093093;28;20048;-63
2022/11/18 12:08:53;;;;;;;24.17;13.90;;;4.70;99.90;;;;;;5091184;28;20062;-63
2022/11/18 12:11:30;;;;;;;26.33;15.55;;;4.70;99.90;;;;;;5091743;28;20055;-64
2022/11/18 12:14:03;;;;;;;25.30;14.35;;;4.60;99.90;;;;;;5092261;28;20414;-63
2022/11/18 12:16:40;;;;;;;23.23;12.73;;;4.70;99.90;;;;;;5089450;28;20047;-63
2022/11/18 12:19:11;;;;;;;21.65;12.88;;;4.70;99.90;;;;;;5091661;28;20043;-64
2022/11/18 12:21:54;;;;;;;;;;;4.70;99.90;;;;;;5091382;28;20055;-63
2022/11/18 12:24:36;;;;;;;24.92;12.38;;;4.60;99.90;;;;;;5092356;28;19920;-63
2022/11/18 12:27:10;;;;;;;25.23;13.77;;;4.60;99.90;;;;;;5091758;28;20510;-63
2022/11/18 12:29:54;;;;;;;26.23;13.60;;;4.60;99.90;;;;;;5091984;28;20055;-63
2022/11/18 12:32:33;;;;;;;23.25;12.60;;;4.60;99.90;;;;;;5090024;28;20444;-63
2022/11/18 12:35:21;;;;;;;21.60;12.77;;;4.60;99.90;;;;;;5091451;28;20146;-63
2022/11/18 12:38:00;;;;;;;19.10;12.00;;;4.50;99.90;;;;;;5090122;28;20131;-64
2022/11/18 12:40:45;;;;;;;20.38;12.05;;;4.50;99.90;;;;;;5092079;28;20427;-63
2022/11/18 12:43:47;;;;;;;16.98;10.95;;;4.50;99.90;;;;;;5092478;28;20044;-63
2022/11/18 12:46:47;;;;;;;17.35;10.00;;;4.40;99.90;;;;;;5049500;28;20040;-64
2022/11/18 12:49:48;;;;;;;18.45;10.52;;;4.40;99.90;;;;;;5090779;28;20542;-63
2022/11/18 12:52:47;;;;;;;17.33;11.10;;;4.40;99.90;;;;;;5071882;28;20101;-63
2022/11/18 12:55:18;;;;;;;18.27;10.18;;;4.50;99.90;;;;;;5087563;28;20094;-62
2022/11/18 12:57:45;;;;;;;19.15;10.77;;;4.50;99.90;;;;;;5090624;28;20048;-63
2022/11/18 13:00:30;;;;;;;17.88;9.95;;;4.40;99.90;;;;;;5087459;28;20071;-65
2022/11/18 13:03:00;;;;;;;20.33;11.77;;;4.40;99.90;;;;;;5091095;28;20051;-63
2022/11/18 13:05:28;;;;;;;17.40;11.27;;;4.40;99.90;;;;;;5088568;28;20081;-64
2022/11/18 13:08:14;;;;;;;19.83;11.32;;;4.50;99.90;;;;;;5091623;28;20051;-63
2022/11/18 13:10:48;;;;;;;19.90;11.35;;;4.50;99.90;;;;;;5090559;28;20044;-62
2022/11/18 13:13:23;;;;;;;23.90;12.95;;;4.40;99.90;;;;;;5088288;28;20536;-64
2022/11/18 13:18:46;;;;;;;22.42;12.57;;;4.30;99.90;;;;;;5090909;28;20052;-64